Latest Weather Observations for kunanyi / Mount Wellington

IDT60901

Issued at 6:41 pm EST Monday 24 July 2017 (issued every 10 minutes, with the page automatically refreshed every 10 minutes)

About weather observations | Map of Hobart area stations | Latest observations for Hobart area | Other Formats
Station Details ID: 094087 Name: KUNANYI (MOUNT WELLINGTON PINNACLE) Lat: -42.90 Lon: 147.24 Height: 1260.47 m
Data from the previous 72 hours. | See also: Recent months at kunanyi / Mount Wellington
Date/Time
EST
Temp
°C
App
Temp
°C
Dew
Point
°C
Rel
Hum
%
Delta-T
°C
Wind Press
QNH
hPa
Press
MSL
hPa
Rain since
9am
mm
Dir  Spd
km/h
Gust
km/h
Spd
kts
Gust
kts
24/06:30pm -1.9 -14.2 -2.9 93 0.3 SW 52 63 28 34 - - 0.2
24/06:08pm -1.9 -13.0 -3.2 91 0.4 SW 46 65 25 35 - - 0.2
24/06:00pm -1.9 -12.6 -2.9 93 0.3 SW 44 56 24 30 - - 0.2
24/05:58pm -1.9 -13.0 -3.0 92 0.3 SW 46 67 25 36 - - 0.2
24/05:30pm -1.9 -14.2 -2.9 93 0.3 SW 52 67 28 36 - - 0.2
24/05:00pm -2.0 -13.9 -3.1 92 0.3 SW 50 63 27 34 - - 0.2
24/04:30pm -1.6 -12.7 -2.9 91 0.4 SW 46 57 25 31 - - 0.2
24/04:00pm -1.6 -13.0 -2.3 95 0.2 SW 48 61 26 33 - - 0.2
24/03:30pm -1.3 -12.7 -2.3 93 0.3 SW 48 65 26 35 - - 0.2
24/03:03pm -1.0 -12.0 -2.0 93 0.3 SW 46 69 25 37 - - 0.2
24/03:00pm -0.9 -11.9 -1.9 93 0.3 SW 46 59 25 32 - - 0.2
24/02:30pm -0.8 -12.9 -1.9 92 0.4 SW 52 67 28 36 - - 0.2
24/02:00pm -0.8 -13.3 -2.1 91 0.4 SW 54 67 29 36 - - 0.2
24/01:30pm -0.9 -13.5 -2.3 90 0.5 SW 54 67 29 36 - - 0.2
24/01:00pm -0.9 -14.0 -2.0 92 0.4 SW 57 72 31 39 - - 0.2
24/12:30pm -0.9 -13.4 -2.0 92 0.4 SW 54 72 29 39 - - 0.0
24/12:28pm -0.9 -13.4 -2.0 92 0.4 SW 54 72 29 39 - - 0.0
24/12:00pm -1.2 -14.1 -2.3 92 0.3 SW 56 67 30 36 - - 0.0
24/11:30am -1.2 -13.3 -2.0 94 0.2 SW 52 63 28 34 - - 0.0
24/11:00am -1.4 -13.2 -2.2 94 0.2 SW 50 61 27 33 - - 0.0
24/10:30am -1.6 -13.0 -2.4 94 0.2 SW 48 59 26 32 - - 0.0
24/10:00am -2.1 -13.6 -2.9 94 0.2 SW 48 61 26 33 - - 0.0
24/09:30am -2.1 -12.2 -2.8 95 0.2 SW 41 52 22 28 - - 0.0
24/09:00am -2.5 -13.1 -3.2 95 0.1 SW 43 57 23 31 - - 2.4
24/08:50am -2.6 -12.8 -3.4 94 0.2 SW 41 61 22 33 - - 2.4
24/08:30am -3.0 -13.8 -3.8 94 0.1 SW 44 57 24 31 - - 2.4
24/08:00am -2.7 -12.9 -3.2 96 0.1 SW 41 59 22 32 - - 2.4
24/07:58am -2.6 -12.8 -3.1 96 0.1 SW 41 59 22 32 - - 2.4
24/07:30am -2.9 -12.0 -3.6 95 0.1 SW 35 46 19 25 - - 2.4
24/07:00am -3.0 -12.5 -3.5 96 0.0 SW 37 48 20 26 - - 2.4
24/06:30am -2.8 -12.2 -3.3 96 0.0 SW 37 46 20 25 - - 2.4
24/06:00am -2.9 -12.0 -3.4 96 0.0 SW 35 46 19 25 - - 2.4
24/05:30am -3.1 -13.9 -3.8 95 0.1 SW 44 57 24 31 - - 2.4
24/05:00am -3.3 -14.2 -4.0 95 0.1 SW 44 59 24 32 - - 2.4
24/04:30am -3.2 -14.4 -3.9 95 0.1 SW 46 59 25 32 - - 2.4
24/04:00am -3.1 -13.9 -3.8 95 0.1 SW 44 59 24 32 - - 2.4
24/03:46am -3.3 -14.0 -4.0 95 0.1 SW 43 63 23 34 - - 2.4
24/03:30am -3.5 -14.2 -4.2 95 0.1 SW 43 59 23 32 - - 2.4
24/03:00am -3.3 -15.3 -4.0 95 0.1 SW 50 61 27 33 - - 2.4
24/02:30am -3.3 -15.3 -4.0 95 0.1 SW 50 61 27 33 - - 2.4
24/02:00am -3.4 -14.7 -4.1 95 0.1 SW 46 63 25 34 - - 2.4
24/01:30am -3.6 -14.5 -4.3 95 0.1 SW 44 57 24 31 - - 2.4
24/01:00am -4.0 -14.0 -4.8 94 0.1 SW 39 50 21 27 - - 2.4
24/12:30am -3.9 -14.6 -4.6 95 0.1 SW 43 52 23 28 - - 2.4
24/12:00am -3.9 -14.8 -4.7 94 0.1 SW 44 52 24 28 - - 2.4
 
Date/Time
EST
Temp
°C
App
Temp
°C
Dew
Point
°C
Rel
Hum
%
Delta-T
°C
Wind Press
QNH
hPa
Press
MSL
hPa
Rain since
9am
mm
Dir  Spd
km/h
Gust
km/h
Spd
kts
Gust
kts
23/11:30pm -4.1 -13.7 -4.9 94 0.1 SW 37 46 20 25 - - 2.4
23/11:00pm -4.2 -14.2 -5.0 94 0.1 SW 39 50 21 27 - - 2.4
23/10:30pm -3.9 -13.1 -4.6 95 0.1 SW 35 44 19 24 - - 2.4
23/10:00pm -3.7 -13.3 -4.4 95 0.1 SW 37 43 20 23 - - 2.4
23/09:30pm -3.8 -13.4 -4.5 95 0.1 SW 37 48 20 26 - - 2.4
23/09:00pm -3.7 -12.3 -4.4 95 0.1 SW 32 43 17 23 - - 2.4
23/08:30pm -3.3 -12.8 -4.0 95 0.1 SW 37 48 20 26 - - 2.4
23/08:00pm -3.3 -11.9 -3.8 96 0.0 SW 32 39 17 21 - - 2.4
23/07:30pm -3.2 -12.7 -3.7 96 0.0 SW 37 46 20 25 - - 2.4
23/07:00pm -3.1 -11.8 -3.6 96 0.0 SW 33 43 18 23 - - 2.4
23/06:30pm -2.8 -12.6 -3.2 97 0.0 SW 39 50 21 27 - - 2.4
23/06:00pm -2.2 -11.2 -2.5 98 0.0 SW 35 46 19 25 - - 2.4
23/05:30pm -1.8 -11.1 -2.1 98 0.0 SW 37 44 20 24 - - 2.4
23/05:00pm -1.4 -12.4 -1.7 98 0.0 SW 46 57 25 31 - - 2.4
23/04:30pm -1.0 -10.9 -1.1 99 0.0 SW 41 50 22 27 - - 2.4
23/04:00pm -0.4 -9.1 -0.5 99 0.0 SW 35 43 19 23 - - 2.4
23/03:30pm -0.1 -8.4 -0.2 99 0.0 WSW 33 43 18 23 - - 2.2
23/03:00pm 0.0 -7.3 -0.1 99 0.0 WSW 28 41 15 22 - - 1.6
23/02:30pm 0.0 -5.2 -0.1 99 0.0 WSW 17 24 9 13 - - 1.2
23/02:00pm 0.6 -4.5 0.5 99 0.0 SW 17 24 9 13 - - 0.8
23/01:30pm 0.7 -7.3 0.6 99 0.0 SW 32 41 17 22 - - 0.8
23/01:03pm 0.7 -6.9 0.6 99 0.0 WSW 30 50 16 27 - - 0.8
23/01:00pm 0.8 -6.4 0.7 99 0.0 WSW 28 39 15 21 - - 0.8
23/12:30pm 0.3 -7.7 0.2 99 0.0 WSW 32 43 17 23 - - 0.8
23/12:00pm 0.3 -10.0 0.2 99 0.0 WSW 44 59 24 32 - - 0.8
23/11:30am 0.2 -12.6 0.1 99 0.0 WSW 57 78 31 42 - - 0.8
23/11:00am 0.1 -13.9 0.0 99 0.0 WSW 63 85 34 46 - - 0.8
23/10:57am 0.1 -13.9 0.0 99 0.0 WSW 63 85 34 46 - - 0.8
23/10:30am -0.1 -12.9 -0.2 99 0.0 W 57 70 31 38 - - 0.8
23/10:00am 0.0 -12.8 -0.1 99 0.0 W 57 76 31 41 - - 0.6
23/09:46am -0.1 -11.2 -0.2 99 0.0 W 48 69 26 37 - - 0.4
23/09:30am -0.1 -11.2 -0.2 99 0.0 WSW 48 61 26 33 - - 0.4
23/09:00am 0.1 -9.7 0.0 99 0.0 WSW 41 59 22 32 - - 3.2
23/08:30am 0.2 -10.5 0.1 99 0.0 WSW 46 69 25 37 - - 3.0
23/08:01am 0.1 -13.1 0.0 99 0.0 W 59 80 32 43 - - 3.0
23/08:00am 0.1 -13.5 0.0 99 0.0 W 61 80 33 43 - - 3.0
23/07:39am 0.0 -13.6 -0.1 99 0.0 W 61 82 33 44 - - 3.0
23/07:30am 0.0 -13.6 -0.1 99 0.0 W 61 80 33 43 - - 3.0
23/07:22am 0.0 -12.6 -0.1 99 0.0 W 56 74 30 40 - - 3.0
23/07:00am 0.0 -12.6 -0.1 99 0.0 W 56 70 30 38 - - 3.0
23/06:36am 0.3 -12.3 0.2 99 0.0 W 56 76 30 41 - - 3.0
23/06:30am 0.4 -12.4 0.3 99 0.0 W 57 74 31 40 - - 3.0
23/06:00am 0.4 -11.4 0.3 99 0.0 W 52 74 28 40 - - 3.0
23/05:30am 0.4 -12.2 0.3 99 0.0 W 56 87 30 47 - - 3.0
23/05:05am 1.0 -11.1 0.9 99 0.0 WNW 54 74 29 40 - - 2.8
23/05:00am 1.1 -10.6 1.0 99 0.0 WNW 52 69 28 37 - - 2.8
23/04:30am 1.1 -9.1 1.0 99 0.0 WNW 44 65 24 35 - - 2.8
23/04:02am 1.1 -11.0 1.0 99 0.0 WNW 54 74 29 40 - - 2.6
23/04:00am 1.1 -11.4 1.0 99 0.0 WNW 56 74 30 40 - - 2.6
23/03:30am 1.1 -12.3 1.0 99 0.0 WNW 61 83 33 45 - - 2.6
23/03:01am 0.9 -12.6 0.8 99 0.0 WNW 61 82 33 44 - - 2.6
23/03:00am 0.9 -12.9 0.8 99 0.0 WNW 63 82 34 44 - - 2.6
23/02:59am 0.9 -12.6 0.8 99 0.0 WNW 61 82 33 44 - - 2.6
23/02:30am 0.8 -13.8 0.7 99 0.0 WNW 67 82 36 44 - - 2.6
23/02:02am 0.8 -13.8 0.7 99 0.0 NW 67 85 36 46 - - 2.6
23/02:00am 0.8 -13.8 0.7 99 0.0 NW 67 82 36 44 - - 2.6
23/01:31am 1.5 -12.6 1.4 99 0.0 NW 65 85 35 46 - - 2.4
23/01:30am 1.6 -12.9 1.5 99 0.0 NW 67 85 36 46 - - 2.4
23/01:03am 1.8 -12.6 1.7 99 0.0 WNW 67 95 36 51 - - 2.2
23/01:00am 1.9 -12.5 1.8 99 0.0 WNW 67 85 36 46 - - 2.2
23/12:52am 2.1 -12.9 2.0 99 0.0 WNW 70 91 38 49 - - 2.2
23/12:30am 2.9 -11.0 2.8 99 0.0 NW 65 85 35 46 - - 1.4
23/12:00am 2.8 -10.7 2.7 99 0.0 NW 63 83 34 45 - - 1.4
 
Date/Time
EST
Temp
°C
App
Temp
°C
Dew
Point
°C
Rel
Hum
%
Delta-T
°C
Wind Press
QNH
hPa
Press
MSL
hPa
Rain since
9am
mm
Dir  Spd
km/h
Gust
km/h
Spd
kts
Gust
kts
22/11:32pm 2.8 -9.4 2.7 99 0.0 NW 56 76 30 41 - - 1.4
22/11:30pm 2.8 -9.4 2.7 99 0.0 NW 56 74 30 40 - - 1.4
22/11:00pm 2.7 -10.1 2.6 99 0.0 NW 59 78 32 42 - - 1.2
22/10:43pm 2.7 -9.1 2.6 99 0.0 NW 54 74 29 40 - - 1.2
22/10:30pm 2.7 -9.1 2.6 99 0.0 NW 54 70 29 38 - - 1.2
22/10:04pm 2.6 -9.6 2.5 99 0.0 NW 56 74 30 40 - - 1.2
22/10:00pm 2.7 -9.7 2.6 99 0.0 NW 57 74 31 40 - - 1.2
22/09:46pm 2.6 -9.6 2.5 99 0.0 NW 56 78 30 42 - - 1.2
22/09:30pm 2.5 -9.7 2.4 99 0.0 NW 56 72 30 39 - - 1.2
22/09:06pm 2.5 -9.0 2.4 99 0.0 NW 52 72 28 39 - - 1.0
22/09:00pm 2.4 -8.7 2.3 99 0.0 NW 50 65 27 35 - - 1.0
22/08:36pm 2.6 -8.5 2.5 99 0.0 NW 50 69 27 37 - - 1.0
22/08:30pm 2.5 -8.2 2.4 99 0.0 NW 48 61 26 33 - - 0.8
22/08:15pm 2.5 -7.8 2.4 99 0.0 NW 46 67 25 36 - - 0.8
22/08:00pm 2.4 -7.6 2.3 99 0.0 NW 44 57 24 31 - - 0.8
22/07:35pm 2.3 -6.4 2.2 99 0.0 NW 37 56 20 30 - - 0.6
22/07:30pm 2.3 -6.7 2.2 99 0.0 NW 39 56 21 30 - - 0.6
22/07:00pm 2.4 -6.6 2.3 99 0.0 NW 39 54 21 29 - - 0.4
22/06:30pm 2.4 -7.4 2.3 99 0.0 NW 43 52 23 28 - - 0.4
22/06:00pm 2.3 -7.1 2.2 99 0.0 NW 41 52 22 28 - - 0.2
22/05:30pm 2.3 -6.4 2.2 99 0.0 NW 37 48 20 26 - - 0.2
22/05:00pm 2.3 -6.7 2.2 99 0.0 NW 39 56 21 30 - - 0.0
22/04:53pm 2.3 -6.4 2.2 99 0.0 NW 37 56 20 30 - - 0.0
22/04:30pm 2.3 -6.4 2.2 99 0.0 NW 37 54 20 29 - - 0.0
22/04:22pm 2.3 -5.6 2.0 98 0.1 NW 33 54 18 29 - - 0.0
22/04:00pm 2.2 -7.3 1.9 98 0.1 NW 41 56 22 30 - - 0.0
22/03:30pm 2.2 -7.7 1.9 98 0.1 NW 43 57 23 31 - - 0.0
22/03:12pm 2.3 -7.5 2.0 98 0.1 NW 43 61 23 33 - - 0.0
22/03:00pm 2.3 -8.1 2.0 98 0.1 NW 46 63 25 34 - - 0.0
22/02:30pm 2.2 -8.2 1.9 98 0.1 NW 46 65 25 35 - - 0.0
22/02:13pm 2.1 -8.3 1.8 98 0.1 WNW 46 67 25 36 - - 0.0
22/02:00pm 2.0 -7.9 1.7 98 0.1 WNW 43 57 23 31 - - 0.0
22/01:30pm 1.7 -9.2 1.4 98 0.1 NW 48 61 26 33 - - 0.0
22/01:00pm 1.6 -8.9 1.2 97 0.2 WNW 46 63 25 34 - - 0.0
22/12:30pm 1.2 -9.8 0.6 96 0.2 WNW 48 59 26 32 - - 0.0
22/12:00pm 1.1 -9.6 0.4 95 0.3 WNW 46 61 25 33 - - 0.0
22/11:30am 1.0 -11.3 -0.3 91 0.5 WNW 54 65 29 35 - - 0.0
22/11:00am 0.9 -10.3 -0.9 88 0.7 WNW 48 63 26 34 - - 0.0
22/10:30am 0.8 -10.8 -1.1 87 0.7 WNW 50 65 27 35 - - 0.0
22/10:00am 0.7 -11.7 -0.9 89 0.6 WNW 54 70 29 38 - - 0.0
22/09:30am -0.1 -12.2 -1.7 89 0.6 WNW 52 61 28 33 - - 0.0
22/09:00am -0.3 -12.8 -2.0 88 0.6 WNW 54 67 29 36 - - 1.2
22/08:30am 0.2 -11.9 -2.0 85 0.8 WNW 52 61 28 33 - - 1.2
22/08:00am 0.3 -11.9 -2.1 84 0.9 WNW 52 61 28 33 - - 1.2
22/07:30am 0.3 -10.3 -2.2 83 1.0 WNW 44 54 24 29 - - 1.2
22/07:00am 1.1 -9.6 -2.3 78 1.3 WNW 44 57 24 31 - - 1.2
22/06:42am 1.7 -7.6 -2.2 75 1.5 W 37 57 20 31 - - 1.2
22/06:30am 2.8 -7.6 -2.1 70 1.9 W 43 54 23 29 - - 1.2
22/06:00am 1.9 -7.4 -2.4 73 1.6 W 37 44 20 24 - - 1.2
22/05:30am 1.7 -7.9 -4.4 64 2.3 W 37 46 20 25 - - 1.2
22/05:00am 1.4 -9.7 -7.9 50 3.1 W 43 57 23 31 - - 1.2
22/04:30am 1.8 -9.6 -9.4 43 3.6 W 44 74 24 40 - - 1.2
22/04:22am 0.7 -10.4 -8.8 49 3.0 W 43 74 23 40 - - 1.2
22/04:00am -0.4 -12.3 -7.2 60 2.2 WNW 48 57 26 31 - - 1.2
22/03:30am -0.4 -13.1 -7.0 61 2.1 WNW 52 59 28 32 - - 1.2
22/03:00am 0.0 -12.0 -7.5 57 2.4 WNW 48 61 26 33 - - 1.2
22/02:30am 0.2 -12.1 -7.3 57 2.5 WNW 50 59 27 32 - - 1.2
22/02:00am 0.4 -12.0 -8.0 53 2.7 WNW 50 63 27 34 - - 1.2
22/01:30am 0.5 -10.8 -8.4 51 2.9 WNW 44 59 24 32 - - 1.2
22/01:04am 1.4 -5.3 -10.4 41 3.7 WNW 19 56 10 30 - - 1.2
22/01:00am 1.6 -4.0 -10.5 40 3.8 WNW 13 15 7 8 - - 1.2
22/12:30am 1.0 -4.5 -9.9 44 3.4 WNW 13 15 7 8 - - 1.2
22/12:00am 0.9 -4.2 -9.9 44 3.4 WNW 11 13 6 7 - - 1.2
 
Date/Time
EST
Temp
°C
App
Temp
°C
Dew
Point
°C
Rel
Hum
%
Delta-T
°C
Wind Press
QNH
hPa
Press
MSL
hPa
Rain since
9am
mm
Dir  Spd
km/h
Gust
km/h
Spd
kts
Gust
kts
21/11:30pm 1.1 -4.0 -8.9 47 3.2 WNW 11 13 6 7 - - 1.2
21/11:00pm 0.2 -4.7 -6.8 59 2.3 WNW 11 13 6 7 - - 1.2
21/10:30pm 0.9 -4.0 -7.6 53 2.8 NW 11 13 6 7 - - 1.2
21/10:00pm 0.4 -4.5 -6.7 59 2.4 NW 11 13 6 7 - - 1.2
21/09:30pm -0.1 -4.8 -4.7 71 1.6 WNW 11 13 6 7 - - 1.2
21/09:00pm -0.2 -5.0 -5.6 67 1.8 WNW 11 11 6 6 - - 1.2
21/08:30pm 0.4 -2.3 -6.0 62 2.2 CALM 0 26 0 14 - - 1.2
21/08:00pm 0.5 -2.2 -6.1 61 2.3 CALM 0 0 0 0 - - 1.2
21/07:30pm 0.3 -2.3 -4.7 69 1.8 CALM 0 6 0 3 - - 1.2
21/07:00pm -0.3 -2.9 -1.7 90 0.5 W 2 15 1 8 - - 1.2

Latest Capital City Observations: Canberra | Sydney | Melbourne | Brisbane | Adelaide | Perth | Hobart | Darwin

Other Formats:

Comma delimited format used in spreadsheet applications
http://www.bom.gov.au/fwo/IDT60901/IDT60901.95979.axf

JavaScript Object Notation format (JSON) in row-major order
http://www.bom.gov.au/fwo/IDT60901/IDT60901.95979.json